Time;durP1;ratioP1;P1;durP2;ratioP2;P2;SDS_P1;SDS_P2;PMS_P1;PMS_P2;Temp;Humidity;BMP_temperature;BMP_pressure;BME280_temperature;BME280_humidity;BME280_pressure;Samples;Min_cycle;Max_cycle;Signal;HPM_P1;HPM_P2
2021/04/22 00:00:17;;;;;;;4.95;3.63;;;18.30;41.70;;;;;;4967425;28;20161;-81
2021/04/22 00:02:48;;;;;;;5.90;3.60;;;18.30;41.60;;;;;;4967380;28;20533;-81
2021/04/22 00:05:34;;;;;;;4.28;3.88;;;18.20;41.80;;;;;;4966930;28;20292;-82
2021/04/22 00:08:00;;;;;;;4.82;3.97;;;18.20;41.70;;;;;;4963057;29;20158;-81
2021/04/22 00:10:36;;;;;;;4.47;3.80;;;18.20;41.80;;;;;;4966757;28;20253;-82
2021/04/22 00:13:02;;;;;;;4.20;3.80;;;18.20;41.70;;;;;;4967186;28;20233;-81
2021/04/22 00:15:29;;;;;;;5.15;3.72;;;18.20;41.80;;;;;;4966617;28;20153;-82
2021/04/22 00:18:04;;;;;;;4.00;3.60;;;18.20;41.70;;;;;;4967823;28;20165;-82
2021/04/22 00:20:31;;;;;;;4.25;3.47;;;18.20;41.70;;;;;;4965597;29;20173;-82
2021/04/22 00:22:57;;;;;;;5.13;3.80;;;18.20;41.70;;;;;;4971022;28;20247;-80
2021/04/22 00:25:23;;;;;;;5.35;4.00;;;18.20;41.70;;;;;;4952434;28;20224;-81
2021/04/22 00:27:49;;;;;;;5.13;3.85;;;18.20;41.70;;;;;;4968391;28;20161;-81
2021/04/22 00:30:23;;;;;;;4.75;3.72;;;18.20;41.70;;;;;;4985800;28;20153;-81
2021/04/22 00:32:50;;;;;;;4.60;4.20;;;18.20;41.80;;;;;;4968739;28;20180;-81
2021/04/22 00:35:24;;;;;;;4.82;3.65;;;18.20;41.80;;;;;;4967887;28;20255;-82
2021/04/22 00:37:51;;;;;;;5.72;3.85;;;18.20;41.80;;;;;;4968221;28;20152;-82
2021/04/22 00:40:19;;;;;;;4.70;3.50;;;18.20;41.90;;;;;;4986520;28;20172;-81
2021/04/22 00:42:46;;;;;;;5.95;4.10;;;18.20;41.90;;;;;;4968060;28;20180;-80
2021/04/22 00:45:13;;;;;;;4.05;3.65;;;18.20;41.90;;;;;;4968693;28;20215;-81
2021/04/22 00:47:40;;;;;;;4.60;3.90;;;18.20;41.80;;;;;;4986007;28;20169;-81
2021/04/22 00:50:09;;;;;;;4.65;3.83;;;18.20;41.90;;;;;;4968124;28;20172;-81
2021/04/22 00:52:38;;;;;;;4.80;3.92;;;18.20;42.50;;;;;;4985616;28;20161;-82
2021/04/22 00:55:06;;;;;;;4.15;3.75;;;18.20;41.90;;;;;;4985680;28;20204;-81
2021/04/22 00:57:32;;;;;;;4.35;3.90;;;18.20;41.90;;;;;;4967645;28;20188;-81
2021/04/22 00:59:59;;;;;;;4.70;4.07;;;18.20;41.80;;;;;;4966793;28;20168;-82
2021/04/22 01:02:26;;;;;;;4.78;3.88;;;18.20;41.90;;;;;;4985277;28;20157;-81
2021/04/22 01:04:52;;;;;;;3.95;3.55;;;18.20;41.90;;;;;;4985330;28;20153;-81
2021/04/22 01:07:19;;;;;;;4.72;4.15;;;18.20;41.90;;;;;;4968197;28;20164;-80
2021/04/22 01:09:45;;;;;;;5.28;4.05;;;18.20;42.00;;;;;;4968560;28;20157;-81
2021/04/22 01:12:12;;;;;;;4.32;3.78;;;18.20;42.00;;;;;;4951203;28;20173;-81
2021/04/22 01:14:40;;;;;;;4.45;3.50;;;18.20;42.10;;;;;;4968238;28;20165;-81
2021/04/22 01:17:07;;;;;;;5.25;3.65;;;18.20;41.90;;;;;;4985676;28;20144;-80
2021/04/22 01:19:34;;;;;;;4.10;3.65;;;18.20;42.00;;;;;;4968306;28;20157;-81
2021/04/22 01:22:00;;;;;;;4.13;3.53;;;18.20;42.00;;;;;;4968600;28;20157;-81
2021/04/22 01:24:26;;;;;;;4.57;3.80;;;18.20;42.00;;;;;;4968104;28;20220;-81
2021/04/22 01:26:53;;;;;;;4.28;3.65;;;18.20;42.10;;;;;;4985160;28;20259;-81
2021/04/22 01:29:19;;;;;;;4.55;3.80;;;18.10;42.00;;;;;;4985341;28;20157;-80
2021/04/22 01:31:53;;;;;;;4.00;3.60;;;18.20;42.10;;;;;;4984826;28;20172;-81
2021/04/22 01:34:19;;;;;;;3.85;3.40;;;18.20;42.00;;;;;;4985143;28;20157;-81
2021/04/22 01:36:47;;;;;;;4.65;3.80;;;18.10;42.10;;;;;;4967695;28;20165;-80
2021/04/22 01:39:13;;;;;;;5.55;3.65;;;18.10;42.20;;;;;;4985035;28;20156;-79
2021/04/22 01:41:40;;;;;;;4.18;3.78;;;18.10;42.10;;;;;;4950666;28;20161;-81
2021/04/22 01:44:08;;;;;;;4.10;3.67;;;18.10;42.20;;;;;;4967105;28;20224;-81
2021/04/22 01:46:34;;;;;;;4.28;3.60;;;18.10;42.10;;;;;;4951354;28;20204;-81
2021/04/22 01:49:01;;;;;;;4.38;3.80;;;18.10;42.20;;;;;;4984874;28;20176;-81
2021/04/22 01:51:27;;;;;;;3.97;3.45;;;18.10;42.20;;;;;;4966969;28;20157;-81
2021/04/22 01:54:02;;;;;;;4.07;3.55;;;18.10;42.10;;;;;;4984657;28;20220;-81
2021/04/22 01:56:29;;;;;;;4.53;3.60;;;18.10;42.10;;;;;;4967537;28;20186;-80
2021/04/22 01:58:56;;;;;;;4.10;3.60;;;18.10;42.10;;;;;;4984834;28;20157;-80
2021/04/22 02:01:22;;;;;;;4.20;3.60;;;18.10;42.30;;;;;;4983961;28;20187;-80
2021/04/22 02:03:48;;;;;;;4.10;3.45;;;18.10;42.30;;;;;;4967217;28;20244;-81
2021/04/22 02:06:23;;;;;;;5.35;3.80;;;18.10;42.30;;;;;;4967538;28;20200;-80
2021/04/22 02:08:57;;;;;;;6.15;3.45;;;18.10;42.30;;;;;;4984678;28;20156;-81
2021/04/22 02:11:24;;;;;;;3.85;3.45;;;18.10;42.20;;;;;;4985374;28;20164;-81
2021/04/22 02:14:00;;;;;;;4.78;3.78;;;18.10;42.30;;;;;;4984859;28;20590;-81
2021/04/22 02:16:26;;;;;;;4.07;3.58;;;18.10;42.30;;;;;;4984642;28;20180;-80
2021/04/22 02:19:01;;;;;;;4.75;3.67;;;18.10;42.40;;;;;;4985191;28;20157;-81
2021/04/22 02:21:27;;;;;;;4.10;3.60;;;18.10;42.30;;;;;;4984364;28;20164;-80
2021/04/22 02:23:53;;;;;;;4.93;3.83;;;18.10;42.30;;;;;;4984580;28;20232;-80
2021/04/22 02:26:20;;;;;;;4.18;3.70;;;18.10;42.30;;;;;;4984335;28;20193;-80
2021/04/22 02:28:54;;;;;;;5.10;3.50;;;18.10;42.30;;;;;;4962534;28;20177;-81
2021/04/22 02:31:21;;;;;;;5.68;4.03;;;18.10;42.30;;;;;;4979337;28;20247;-80
2021/04/22 02:33:55;;;;;;;5.07;3.88;;;18.10;42.30;;;;;;4961450;28;20228;-81
2021/04/22 02:36:22;;;;;;;4.07;3.47;;;18.10;42.20;;;;;;4979495;28;20667;-80
2021/04/22 02:38:48;;;;;;;4.45;3.90;;;18.10;42.30;;;;;;4979907;28;20160;-80
2021/04/22 02:41:15;;;;;;;4.68;3.70;;;18.10;43.10;;;;;;4979908;28;20165;-79
2021/04/22 02:43:41;;;;;;;4.80;3.67;;;18.10;42.30;;;;;;4979340;28;20216;-80
2021/04/22 02:46:08;;;;;;;5.15;3.60;;;18.10;42.40;;;;;;4979325;28;20197;-80
2021/04/22 02:48:34;;;;;;;5.07;4.10;;;18.10;42.40;;;;;;4979649;28;20153;-80
2021/04/22 02:51:01;;;;;;;4.32;3.42;;;18.10;42.50;;;;;;4965296;28;20165;-80
2021/04/22 02:53:27;;;;;;;3.53;3.22;;;18.10;42.40;;;;;;4983130;28;20161;-79
2021/04/22 02:55:54;;;;;;;4.68;3.50;;;18.00;42.50;;;;;;4982722;28;20180;-79
2021/04/22 02:58:23;;;;;;;5.20;3.83;;;18.00;42.50;;;;;;4983930;28;20165;-80
2021/04/22 03:00:50;;;;;;;3.85;3.40;;;18.00;42.40;;;;;;4965984;28;20180;-81
2021/04/22 03:03:16;;;;;;;7.20;4.05;;;18.10;42.50;;;;;;4965447;28;20157;-80
2021/04/22 03:05:43;;;;;;;3.85;3.35;;;18.00;42.50;;;;;;4965223;28;20280;-80
2021/04/22 03:08:10;;;;;;;4.07;3.67;;;18.10;42.50;;;;;;4982896;28;20157;-81
2021/04/22 03:10:36;;;;;;;4.47;3.63;;;18.10;42.60;;;;;;4982956;28;20188;-80
2021/04/22 03:13:03;;;;;;;4.38;3.28;;;18.10;42.60;;;;;;4964964;28;20197;-80
2021/04/22 03:15:38;;;;;;;4.88;3.33;;;18.00;42.50;;;;;;4982589;28;20157;-80
2021/04/22 03:18:05;;;;;;;3.80;3.40;;;18.10;42.60;;;;;;4983527;28;20144;-80
2021/04/22 03:20:39;;;;;;;4.68;3.67;;;18.00;42.60;;;;;;4982667;28;20157;-81
2021/04/22 03:23:05;;;;;;;4.75;3.60;;;18.00;42.60;;;;;;4982157;28;20220;-80
2021/04/22 03:25:32;;;;;;;5.07;3.63;;;18.00;42.80;;;;;;4982498;28;20220;-79
2021/04/22 03:28:06;;;;;;;4.22;3.83;;;18.00;42.70;;;;;;4982867;28;20161;-79
2021/04/22 03:30:33;;;;;;;5.72;3.70;;;17.90;42.70;;;;;;4982918;28;20601;-79
2021/04/22 03:32:59;;;;;;;4.00;3.60;;;18.00;42.80;;;;;;4965465;28;20153;-81
2021/04/22 03:35:26;;;;;;;4.03;3.42;;;18.00;42.80;;;;;;4983493;28;20165;-80
2021/04/22 03:37:52;;;;;;;3.90;3.47;;;18.00;42.80;;;;;;4966401;28;20164;-80
2021/04/22 03:40:20;;;;;;;4.47;3.33;;;18.00;42.90;;;;;;4985277;28;20161;-81
2021/04/22 03:42:46;;;;;;;4.47;3.67;;;18.00;42.80;;;;;;4968853;28;20157;-81
2021/04/22 03:45:14;;;;;;;3.72;3.40;;;18.00;42.80;;;;;;4969036;28;20196;-81
2021/04/22 03:47:41;;;;;;;4.05;3.35;;;18.00;42.80;;;;;;4986639;28;20624;-81
2021/04/22 03:50:10;;;;;;;6.75;3.83;;;18.00;42.90;;;;;;4968792;28;20165;-81
2021/04/22 03:52:37;;;;;;;4.38;3.40;;;18.00;42.90;;;;;;4968426;28;20164;-82
2021/04/22 03:55:06;;;;;;;3.80;3.40;;;17.90;42.80;;;;;;4969202;28;20165;-80
2021/04/22 03:57:32;;;;;;;4.15;3.40;;;17.90;42.90;;;;;;4986057;28;20637;-81
2021/04/22 03:59:59;;;;;;;3.97;3.58;;;18.00;42.80;;;;;;4985634;28;20165;-81
2021/04/22 04:02:26;;;;;;;3.80;3.40;;;18.00;42.90;;;;;;4985632;28;20172;-80
2021/04/22 04:04:53;;;;;;;4.05;3.35;;;18.00;42.80;;;;;;4969223;28;20233;-80
2021/04/22 04:07:19;;;;;;;4.43;3.60;;;18.00;42.90;;;;;;4952281;28;20191;-81
2021/04/22 04:09:54;;;;;;;4.85;3.72;;;18.00;42.90;;;;;;4967191;28;20164;-81
2021/04/22 04:12:20;;;;;;;4.85;3.33;;;18.00;43.00;;;;;;4986278;28;20526;-81
2021/04/22 04:14:55;;;;;;;4.32;3.63;;;17.90;42.80;;;;;;4968545;28;20172;-80
2021/04/22 04:17:22;;;;;;;3.97;3.58;;;18.00;43.00;;;;;;4985527;28;20208;-81
2021/04/22 04:19:48;;;;;;;3.85;3.40;;;18.00;42.80;;;;;;4968013;28;20589;-81
2021/04/22 04:22:15;;;;;;;6.00;3.63;;;18.00;42.70;;;;;;4968386;28;20193;-81
2021/04/22 04:24:41;;;;;;;4.03;3.40;;;18.00;42.80;;;;;;4951475;28;20604;-81
2021/04/22 04:27:08;;;;;;;4.28;3.47;;;18.00;42.60;;;;;;4985659;28;20243;-81
2021/04/22 04:29:35;;;;;;;4.13;3.28;;;18.00;42.80;;;;;;4985391;28;20153;-81
2021/04/22 04:32:02;;;;;;;4.13;3.55;;;18.00;42.80;;;;;;4985791;28;20165;-80
2021/04/22 04:34:36;;;;;;;3.90;3.50;;;18.00;42.80;;;;;;4984722;28;20157;-81
2021/04/22 04:37:04;;;;;;;3.40;3.10;;;18.00;42.70;;;;;;4968182;28;20165;-82
2021/04/22 04:39:30;;;;;;;3.45;3.00;;;18.10;42.80;;;;;;4985506;28;20165;-81
2021/04/22 04:41:57;;;;;;;3.33;3.03;;;18.10;42.50;;;;;;4967931;28;20157;-82
2021/04/22 04:44:31;;;;;;;3.75;3.35;;;18.10;42.60;;;;;;4985379;28;20239;-81
2021/04/22 04:46:57;;;;;;;3.80;3.17;;;18.10;42.70;;;;;;4985465;28;20218;-81
2021/04/22 04:49:31;;;;;;;4.38;3.03;;;18.10;42.60;;;;;;4967334;28;20157;-81
2021/04/22 04:51:57;;;;;;;4.35;3.20;;;18.10;42.50;;;;;;4968093;28;20157;-80
2021/04/22 04:54:24;;;;;;;3.65;3.08;;;18.00;42.70;;;;;;4985280;28;20240;-81
2021/04/22 04:56:51;;;;;;;3.10;2.80;;;18.00;42.70;;;;;;4985084;28;20165;-80
2021/04/22 04:59:17;;;;;;;3.70;3.15;;;18.10;42.30;;;;;;4985130;28;20156;-81
2021/04/22 05:01:43;;;;;;;4.20;3.03;;;18.10;42.50;;;;;;4984711;28;20244;-80
2021/04/22 05:04:10;;;;;;;3.20;2.90;;;18.20;42.30;;;;;;4967532;28;20168;-81
2021/04/22 05:06:39;;;;;;;3.20;2.80;;;18.10;42.40;;;;;;4985256;28;20193;-81
2021/04/22 05:09:07;;;;;;;3.42;3.08;;;18.00;42.50;;;;;;4984435;28;20161;-81
2021/04/22 05:11:34;;;;;;;3.17;2.88;;;18.10;42.50;;;;;;4985327;28;20153;-81
2021/04/22 05:14:02;;;;;;;3.17;2.88;;;18.00;42.50;;;;;;4984766;28;20188;-81
2021/04/22 05:16:28;;;;;;;3.20;2.67;;;18.00;42.30;;;;;;4967198;28;20172;-81
2021/04/22 05:18:57;;;;;;;3.20;2.88;;;18.00;42.60;;;;;;4985256;28;20168;-79
2021/04/22 05:21:23;;;;;;;3.38;2.78;;;18.00;42.60;;;;;;4982587;28;20259;-80
2021/04/22 05:23:50;;;;;;;3.53;3.10;;;18.00;42.50;;;;;;4979163;28;20654;-81
2021/04/22 05:26:24;;;;;;;3.20;2.90;;;18.10;42.40;;;;;;4984334;28;20188;-80
2021/04/22 05:28:59;;;;;;;3.50;2.90;;;18.10;42.50;;;;;;4966412;28;20164;-80
2021/04/22 05:31:25;;;;;;;3.50;3.20;;;18.00;42.40;;;;;;4985245;28;20168;-82
2021/04/22 05:34:00;;;;;;;3.97;2.88;;;18.00;42.50;;;;;;4952606;28;20635;-80
2021/04/22 05:36:26;;;;;;;3.60;2.97;;;18.00;42.50;;;;;;4985673;28;20160;-80
2021/04/22 05:38:54;;;;;;;4.63;3.05;;;18.00;42.70;;;;;;4985692;28;20156;-80
2021/04/22 05:41:20;;;;;;;3.40;2.78;;;18.00;42.70;;;;;;4986078;28;20161;-81
2021/04/22 05:43:47;;;;;;;3.22;2.92;;;18.00;42.60;;;;;;4985470;28;20176;-80
2021/04/22 05:46:14;;;;;;;3.80;3.00;;;18.00;42.70;;;;;;5000188;28;20231;-80
2021/04/22 05:48:40;;;;;;;3.67;2.80;;;18.10;42.60;;;;;;5005289;28;20180;-80
2021/04/22 05:51:08;;;;;;;3.88;2.90;;;18.00;42.70;;;;;;5005287;28;20619;-81
2021/04/22 05:53:37;;;;;;;2.85;2.55;;;18.00;42.50;;;;;;4974737;28;20643;-80
2021/04/22 05:56:05;;;;;;;3.53;2.88;;;18.00;42.60;;;;;;4986576;28;20694;-81
2021/04/22 05:58:31;;;;;;;4.05;2.92;;;18.00;42.50;;;;;;4985287;28;20181;-81
2021/04/22 06:00:57;;;;;;;3.28;2.60;;;18.00;42.70;;;;;;4983401;28;20542;-81
2021/04/22 06:03:23;;;;;;;3.25;2.85;;;18.00;42.70;;;;;;5005540;28;20163;-81
2021/04/22 06:05:48;;;;;;;2.95;2.58;;;18.00;42.80;;;;;;5004933;28;20203;-82
2021/04/22 06:08:15;;;;;;;2.90;2.53;;;18.00;42.80;;;;;;5005432;28;20156;-81
2021/04/22 06:10:41;;;;;;;3.05;2.65;;;18.10;42.80;;;;;;5005042;28;20226;-81
2021/04/22 06:13:13;;;;;;;3.28;2.70;;;18.10;42.70;;;;;;5000501;28;20610;-81
2021/04/22 06:15:40;;;;;;;3.08;2.58;;;18.10;42.60;;;;;;4982380;28;20187;-81
2021/04/22 06:18:15;;;;;;;3.20;2.90;;;18.10;42.60;;;;;;4968236;28;20165;-81
2021/04/22 06:20:41;;;;;;;3.92;2.80;;;18.00;42.80;;;;;;4985648;28;20167;-81
2021/04/22 06:23:07;;;;;;;3.97;2.80;;;18.00;42.80;;;;;;4968465;28;20232;-81
2021/04/22 06:25:33;;;;;;;3.25;2.60;;;18.00;42.80;;;;;;4992365;28;20261;-81
2021/04/22 06:28:00;;;;;;;2.60;2.40;;;18.00;42.60;;;;;;5000213;28;20211;-81
2021/04/22 06:30:27;;;;;;;2.42;2.22;;;18.10;42.50;;;;;;5010050;28;20194;-82
2021/04/22 06:32:53;;;;;;;2.75;2.45;;;18.10;42.50;;;;;;5008379;28;20204;-82
2021/04/22 06:35:19;;;;;;;2.42;2.22;;;18.10;42.50;;;;;;4992272;28;20198;-82
2021/04/22 06:37:44;;;;;;;2.90;2.60;;;18.10;42.10;;;;;;5004384;28;20240;-83
2021/04/22 06:40:13;;;;;;;4.03;2.65;;;18.20;42.10;;;;;;4995397;28;20211;-83
2021/04/22 06:42:43;;;;;;;2.83;2.47;;;18.20;42.00;;;;;;4979277;28;20204;-83
2021/04/22 06:45:11;;;;;;;2.15;1.95;;;18.20;41.80;;;;;;4996027;28;20215;-83
2021/04/22 06:47:40;;;;;;;2.83;2.53;;;18.30;41.90;;;;;;4965064;28;20211;-83
2021/04/22 06:50:08;;;;;;;2.40;2.20;;;18.30;41.90;;;;;;4981129;28;20192;-83
2021/04/22 06:52:38;;;;;;;2.67;2.47;;;18.20;41.90;;;;;;4997007;28;20235;-83
2021/04/22 06:55:11;;;;;;;2.22;2.03;;;18.20;42.00;;;;;;4998395;28;20208;-83
2021/04/22 06:57:39;;;;;;;2.47;2.15;;;18.20;41.90;;;;;;4961759;28;20213;-83
2021/04/22 07:00:12;;;;;;;2.40;2.20;;;18.30;42.00;;;;;;4961296;28;20218;-83
2021/04/22 07:02:40;;;;;;;2.83;2.38;;;18.20;41.90;;;;;;4945780;28;20718;-83
2021/04/22 07:05:09;;;;;;;2.60;2.40;;;18.30;41.80;;;;;;4994378;28;20209;-83
2021/04/22 07:07:41;;;;;;;3.15;2.50;;;18.30;42.00;;;;;;4977655;28;20193;-83
2021/04/22 07:10:10;;;;;;;2.60;2.40;;;18.20;41.80;;;;;;4960348;28;20271;-84
2021/04/22 07:12:37;;;;;;;2.30;2.10;;;18.30;41.90;;;;;;4996244;28;20216;-81
2021/04/22 07:15:06;;;;;;;4.95;2.00;;;18.20;41.80;;;;;;4990058;28;20227;-82
2021/04/22 07:17:41;;;;;;;2.22;2.00;;;18.30;41.80;;;;;;5011451;28;20208;-83
2021/04/22 07:20:12;;;;;;;2.38;1.90;;;18.30;41.70;;;;;;5008749;28;20195;-83
2021/04/22 07:22:38;;;;;;;2.30;2.10;;;18.30;41.60;;;;;;4976229;28;20634;-83
2021/04/22 07:25:06;;;;;;;2.65;2.13;;;18.30;41.60;;;;;;4975971;28;20201;-83
2021/04/22 07:27:32;;;;;;;1.88;1.77;;;18.40;41.50;;;;;;4955651;28;20208;-83
2021/04/22 07:29:57;;;;;;;2.70;2.38;;;18.40;41.40;;;;;;4989545;28;20691;-84
2021/04/22 07:32:32;;;;;;;1.95;1.83;;;18.40;41.40;;;;;;5003765;28;20290;-84
2021/04/22 07:34:59;;;;;;;2.30;2.10;;;18.40;41.20;;;;;;5007468;28;20199;-83
2021/04/22 07:37:25;;;;;;;3.78;2.28;;;18.40;41.30;;;;;;4990855;28;20200;-84
2021/04/22 07:39:50;;;;;;;2.13;1.80;;;18.40;41.50;;;;;;4991145;28;20303;-83
2021/04/22 07:42:20;;;;;;;2.35;2.15;;;18.40;41.60;;;;;;4998318;28;20228;-84
2021/04/22 07:44:47;;;;;;;2.20;2.00;;;18.30;41.50;;;;;;4973899;28;20676;-83
2021/04/22 07:47:20;;;;;;;1.83;1.73;;;18.30;41.60;;;;;;5007566;28;20285;-84
2021/04/22 07:49:46;;;;;;;2.25;1.98;;;18.30;41.70;;;;;;5009594;28;20218;-82
2021/04/22 07:52:11;;;;;;;2.15;1.92;;;18.20;41.90;;;;;;5009783;28;20215;-82
2021/04/22 07:54:38;;;;;;;2.28;2.05;;;18.20;41.80;;;;;;4999146;28;20204;-83
2021/04/22 07:57:05;;;;;;;2.10;1.90;;;18.30;41.70;;;;;;4988143;28;20334;-82
2021/04/22 07:59:30;;;;;;;2.15;2.00;;;18.20;41.50;;;;;;4987572;28;20232;-84
2021/04/22 08:01:57;;;;;;;2.00;1.85;;;18.30;41.50;;;;;;4972150;28;20200;-83
2021/04/22 08:04:25;;;;;;;1.83;1.73;;;18.30;41.40;;;;;;4989896;28;20191;-84
2021/04/22 08:06:51;;;;;;;2.30;2.00;;;18.40;41.40;;;;;;4989533;28;20303;-83
2021/04/22 08:09:17;;;;;;;2.05;1.85;;;18.30;41.30;;;;;;4972609;28;20205;-84
2021/04/22 08:11:45;;;;;;;4.95;2.10;;;18.40;41.50;;;;;;4989923;28;20197;-83
2021/04/22 08:14:20;;;;;;;2.28;2.08;;;18.30;41.40;;;;;;4988441;28;20212;-83
2021/04/22 08:16:47;;;;;;;1.77;1.67;;;18.30;41.60;;;;;;4954700;28;20263;-83
2021/04/22 08:19:17;;;;;;;2.13;1.92;;;18.30;41.40;;;;;;4989794;28;20228;-85
2021/04/22 08:21:43;;;;;;;2.00;1.80;;;18.40;41.40;;;;;;4956442;28;20245;-84
2021/04/22 08:24:10;;;;;;;2.20;1.92;;;18.40;41.40;;;;;;4952302;28;20237;-85
2021/04/22 08:26:36;;;;;;;2.13;1.88;;;18.30;41.60;;;;;;4955039;29;20221;-83
2021/04/22 08:29:06;;;;;;;1.90;1.80;;;18.30;41.60;;;;;;4951986;29;20217;-82
2021/04/22 08:31:41;;;;;;;2.50;2.05;;;18.30;41.60;;;;;;4968147;29;20193;-82
2021/04/22 08:34:08;;;;;;;2.13;1.92;;;18.30;41.60;;;;;;4966889;28;20351;-82
2021/04/22 08:36:36;;;;;;;2.17;1.98;;;18.30;41.50;;;;;;4967750;28;20217;-81
2021/04/22 08:39:08;;;;;;;2.08;1.88;;;18.30;41.70;;;;;;4951492;28;20255;-83
2021/04/22 08:41:36;;;;;;;1.80;1.70;;;18.30;41.60;;;;;;4967694;29;20193;-82
2021/04/22 08:44:04;;;;;;;2.65;1.70;;;18.30;41.60;;;;;;4967442;28;20280;-82
2021/04/22 08:46:31;;;;;;;1.67;1.58;;;18.30;41.70;;;;;;4967028;28;20248;-82
2021/04/22 08:48:57;;;;;;;2.05;1.60;;;18.30;41.60;;;;;;4966657;28;20205;-82
2021/04/22 08:51:32;;;;;;;1.80;1.70;;;18.40;41.40;;;;;;4951033;29;20205;-82
2021/04/22 08:53:59;;;;;;;2.17;1.80;;;18.30;41.40;;;;;;4950596;29;20688;-84
2021/04/22 08:56:25;;;;;;;2.10;1.90;;;18.40;41.40;;;;;;4967369;29;20186;-81
2021/04/22 08:58:51;;;;;;;3.28;1.50;;;18.40;41.60;;;;;;4966595;28;20213;-80
2021/04/22 09:01:19;;;;;;;1.90;1.80;;;18.30;41.40;;;;;;4966872;29;20189;-80
2021/04/22 09:03:47;;;;;;;3.05;2.15;;;18.30;41.40;;;;;;4965570;28;20201;-81
2021/04/22 09:06:17;;;;;;;2.10;1.90;;;18.30;41.50;;;;;;4967377;28;20220;-81
2021/04/22 09:08:48;;;;;;;1.80;1.70;;;18.40;41.60;;;;;;4971851;28;20209;-81
2021/04/22 09:11:16;;;;;;;2.00;1.80;;;18.40;41.60;;;;;;4974211;28;20197;-79
2021/04/22 09:13:42;;;;;;;3.00;1.80;;;18.30;41.50;;;;;;4973234;29;20220;-80
2021/04/22 09:16:22;;;;;;;2.65;1.65;;;18.40;41.50;;;;;;4970850;28;20192;-81
2021/04/22 09:18:52;;;;;;;1.85;1.70;;;18.40;41.40;;;;;;4968578;28;20234;-80
2021/04/22 09:21:29;;;;;;;2.00;1.80;;;18.40;41.60;;;;;;4952446;29;20213;-81
2021/04/22 09:24:02;;;;;;;2.53;1.42;;;18.40;41.60;;;;;;4966423;28;20236;-80
2021/04/22 09:26:50;;;;;;;2.58;1.60;;;18.40;41.70;;;;;;4968437;28;20225;-80
2021/04/22 09:29:32;;;;;;;3.35;1.70;;;18.40;41.70;;;;;;4968392;28;20648;-81
2021/04/22 09:32:20;;;;;;;4.25;1.90;;;18.40;41.50;;;;;;4965893;28;20228;-81
2021/04/22 09:34:47;;;;;;;1.80;1.70;;;18.40;41.60;;;;;;4965193;28;20312;-82
2021/04/22 09:37:14;;;;;;;1.77;1.58;;;18.40;41.60;;;;;;4965378;28;20205;-82
2021/04/22 09:39:40;;;;;;;1.70;1.60;;;18.40;41.50;;;;;;4967219;28;20220;-83
2021/04/22 09:42:17;;;;;;;1.80;1.70;;;18.40;41.60;;;;;;4967626;28;20189;-83
2021/04/22 09:44:52;;;;;;;1.70;1.50;;;18.40;41.50;;;;;;4950783;29;20217;-82
2021/04/22 09:47:23;;;;;;;2.00;1.52;;;18.40;41.50;;;;;;4950052;29;20249;-82
2021/04/22 09:50:00;;;;;;;2.63;1.60;;;18.40;41.40;;;;;;4949693;28;20216;-82
2021/04/22 09:52:35;;;;;;;3.50;1.55;;;18.40;41.60;;;;;;4951636;29;20272;-81
2021/04/22 09:55:06;;;;;;;3.58;1.90;;;18.40;41.50;;;;;;4965743;28;20208;-81
2021/04/22 09:57:34;;;;;;;3.13;1.80;;;18.40;41.50;;;;;;4950847;29;20259;-81
2021/04/22 10:00:13;;;;;;;2.95;1.52;;;18.40;41.70;;;;;;4937868;28;20208;-82
2021/04/22 10:02:55;;;;;;;3.65;1.67;;;18.40;41.70;;;;;;4970902;28;20227;-81
2021/04/22 10:05:58;;;;;;;2.60;1.60;;;18.40;41.70;;;;;;4969593;28;20243;-81
2021/04/22 10:08:43;;;;;;;2.88;1.48;;;18.40;41.70;;;;;;4984406;28;20276;-81
2021/04/22 10:11:15;;;;;;;2.90;1.60;;;18.40;41.70;;;;;;4984567;28;20196;-81
2021/04/22 10:13:49;;;;;;;2.58;1.70;;;18.40;41.80;;;;;;4956237;28;20356;-82
2021/04/22 10:16:18;;;;;;;2.63;1.95;;;18.40;41.80;;;;;;4949008;29;20686;-82
2021/04/22 10:18:48;;;;;;;1.98;1.77;;;18.40;41.90;;;;;;4964488;28;20212;-81
2021/04/22 10:21:42;;;;;;;3.88;1.80;;;18.30;42.10;;;;;;4982887;28;20200;-81
2021/04/22 10:24:12;;;;;;;3.72;1.80;;;18.30;42.00;;;;;;4972341;28;20320;-81
2021/04/22 10:26:40;;;;;;;7.75;2.15;;;18.30;41.90;;;;;;4964985;28;20225;-80
2021/04/22 10:29:11;;;;;;;3.60;1.70;;;18.30;42.10;;;;;;4965238;28;20209;-81
2021/04/22 10:31:41;;;;;;;3.22;1.63;;;18.30;42.10;;;;;;4949340;29;20212;-81
2021/04/22 10:34:12;;;;;;;4.80;1.70;;;18.30;42.10;;;;;;4964835;28;20216;-80
2021/04/22 10:36:39;;;;;;;1.67;1.58;;;18.30;41.90;;;;;;4964912;28;20211;-81
2021/04/22 10:39:06;;;;;;;4.88;1.63;;;18.40;42.00;;;;;;4984933;28;20347;-81
2021/04/22 10:41:39;;;;;;;3.92;1.77;;;18.40;42.20;;;;;;4951722;28;20200;-81
2021/04/22 10:44:10;;;;;;;5.70;1.58;;;18.30;42.00;;;;;;4963039;28;20684;-81
2021/04/22 10:46:40;;;;;;;2.40;1.80;;;18.30;42.10;;;;;;4949618;29;20221;-82
2021/04/22 10:49:09;;;;;;;2.45;1.50;;;18.30;42.00;;;;;;4948735;28;20228;-81
2021/04/22 10:51:38;;;;;;;3.45;1.63;;;18.30;42.10;;;;;;4971625;28;20216;-80
2021/04/22 10:54:05;;;;;;;3.08;1.60;;;18.40;42.10;;;;;;4952250;28;20222;-82
2021/04/22 10:56:31;;;;;;;1.70;1.60;;;18.40;42.10;;;;;;4945316;29;20197;-82
2021/04/22 10:58:57;;;;;;;1.70;1.50;;;18.30;42.00;;;;;;4949095;28;20201;-81
2021/04/22 11:01:33;;;;;;;1.67;1.45;;;18.40;42.10;;;;;;4965112;28;20225;-82
2021/04/22 11:04:05;;;;;;;2.35;1.48;;;18.40;42.10;;;;;;4962449;28;20205;-81
2021/04/22 11:06:34;;;;;;;2.47;1.50;;;18.40;42.10;;;;;;4931320;29;20229;-83
2021/04/22 11:09:23;;;;;;;4.13;1.77;;;18.40;42.00;;;;;;4948116;28;20219;-81
2021/04/22 11:12:01;;;;;;;2.25;1.90;;;18.40;42.00;;;;;;4956459;29;20648;-81
2021/04/22 11:14:46;;;;;;;3.55;1.50;;;18.40;41.90;;;;;;4938498;29;20161;-83
2021/04/22 11:17:11;;;;;;;4.03;1.77;;;18.40;41.90;;;;;;4954440;29;20220;-81
2021/04/22 11:19:45;;;;;;;2.88;1.60;;;18.40;41.90;;;;;;4949313;29;20169;-83
2021/04/22 11:22:29;;;;;;;2.95;1.50;;;18.40;41.90;;;;;;4954281;29;20169;-81
2021/04/22 11:25:00;;;;;;;2.55;1.40;;;18.40;41.90;;;;;;4954155;29;20229;-81
2021/04/22 11:27:26;;;;;;;1.58;1.40;;;18.40;41.70;;;;;;4957556;28;20200;-81
2021/04/22 11:29:57;;;;;;;2.47;1.65;;;18.50;41.60;;;;;;4971969;28;20168;-83
2021/04/22 11:32:28;;;;;;;2.63;1.30;;;18.50;41.70;;;;;;4941770;28;20181;-84
2021/04/22 11:35:09;;;;;;;2.10;1.50;;;18.50;41.60;;;;;;4970595;29;20234;-84
2021/04/22 11:37:41;;;;;;;5.70;1.40;;;18.50;41.60;;;;;;4971482;28;20187;-82
2021/04/22 11:40:27;;;;;;;3.05;1.20;;;18.50;41.70;;;;;;4974830;28;20180;-83
2021/04/22 11:42:56;;;;;;;1.60;1.50;;;18.50;41.90;;;;;;4957731;28;20238;-83
2021/04/22 11:45:47;;;;;;;1.50;1.40;;;18.40;42.00;;;;;;4956672;28;20200;-84
2021/04/22 11:48:18;;;;;;;3.08;1.67;;;18.40;42.00;;;;;;4953925;28;20175;-82
2021/04/22 11:50:45;;;;;;;2.10;1.52;;;18.40;42.00;;;;;;4975492;28;20173;-81
2021/04/22 11:53:47;;;;;;;2.28;1.52;;;18.40;42.00;;;;;;4952751;29;20217;-81
2021/04/22 11:56:20;;;;;;;1.38;1.27;;;18.40;42.10;;;;;;4914661;29;20183;-83
2021/04/22 11:58:58;;;;;;;2.63;1.58;;;18.40;42.10;;;;;;4911370;29;20191;-82
2021/04/22 12:01:25;;;;;;;3.20;1.35;;;18.40;42.10;;;;;;4915055;29;20169;-83
2021/04/22 12:03:52;;;;;;;2.72;1.55;;;18.40;42.10;;;;;;4893614;29;20218;-83
2021/04/22 12:06:29;;;;;;;2.03;1.35;;;18.50;41.90;;;;;;4915398;29;20210;-83
2021/04/22 12:09:03;;;;;;;5.68;1.30;;;18.60;41.80;;;;;;4911224;29;20166;-82
2021/04/22 12:11:30;;;;;;;4.95;1.60;;;18.60;41.70;;;;;;4911374;29;20166;-82
2021/04/22 12:14:04;;;;;;;3.47;1.60;;;18.60;41.60;;;;;;4907053;29;20203;-83
2021/04/22 12:16:40;;;;;;;2.55;1.60;;;18.60;41.70;;;;;;4910649;29;20166;-81
2021/04/22 12:19:08;;;;;;;2.05;1.40;;;18.60;41.90;;;;;;4894152;29;20205;-81
2021/04/22 12:21:35;;;;;;;2.70;1.30;;;18.60;41.90;;;;;;4893852;29;20174;-81
2021/04/22 12:24:05;;;;;;;2.38;1.45;;;18.50;41.90;;;;;;4911107;29;20241;-82
2021/04/22 12:26:44;;;;;;;3.33;1.60;;;18.60;41.90;;;;;;4898842;29;20203;-81
2021/04/22 12:29:12;;;;;;;2.55;1.50;;;18.60;42.20;;;;;;4914064;29;20215;-81
2021/04/22 12:31:42;;;;;;;1.85;1.48;;;18.50;42.00;;;;;;4913858;29;20186;-82
2021/04/22 12:34:16;;;;;;;2.70;1.30;;;18.50;41.90;;;;;;4925608;29;20189;-82
2021/04/22 12:36:54;;;;;;;3.90;1.42;;;18.50;42.00;;;;;;4963281;29;20158;-81
2021/04/22 12:39:30;;;;;;;3.90;1.40;;;18.50;42.00;;;;;;4983961;28;20628;-83
2021/04/22 12:42:20;;;;;;;1.50;1.40;;;18.50;42.10;;;;;;4942742;28;20248;-82
2021/04/22 12:44:57;;;;;;;2.35;1.38;;;18.50;42.00;;;;;;4959015;29;20157;-82
2021/04/22 12:47:56;;;;;;;2.65;1.30;;;18.50;41.70;;;;;;4953503;29;20201;-83
2021/04/22 12:50:42;;;;;;;1.67;1.38;;;18.60;41.90;;;;;;4892955;29;20228;-82
2021/04/22 12:53:25;;;;;;;3.83;1.52;;;18.60;42.00;;;;;;4918754;29;20741;-80
2021/04/22 12:55:58;;;;;;;3.88;1.50;;;18.60;42.00;;;;;;4910605;29;20311;-82
2021/04/22 12:58:35;;;;;;;2.05;1.30;;;18.70;42.00;;;;;;4901756;29;20174;-81
2021/04/22 13:01:13;;;;;;;2.30;1.40;;;18.70;41.80;;;;;;4892804;29;20186;-82